sensor_id;sensor_type;location;lat;lon;timestamp;P1;durP1;ratioP1;P2;durP2;ratioP2
74510;SDS011;62991;50.040;18.400;2023-09-30T00:01:35;10.93;;;4.90;;
74510;SDS011;62991;50.040;18.400;2023-09-30T00:04:35;16.13;;;5.43;;
74510;SDS011;62991;50.040;18.400;2023-09-30T00:07:36;9.40;;;4.93;;
74510;SDS011;62991;50.040;18.400;2023-09-30T00:10:37;11.40;;;4.80;;
74510;SDS011;62991;50.040;18.400;2023-09-30T00:13:37;13.45;;;6.50;;
74510;SDS011;62991;50.040;18.400;2023-09-30T00:16:38;9.23;;;5.28;;
74510;SDS011;62991;50.040;18.400;2023-09-30T00:19:39;9.50;;;5.55;;
74510;SDS011;62991;50.040;18.400;2023-09-30T00:22:40;11.43;;;5.47;;
74510;SDS011;62991;50.040;18.400;2023-09-30T00:25:41;11.38;;;5.35;;
74510;SDS011;62991;50.040;18.400;2023-09-30T00:28:42;10.80;;;5.50;;
74510;SDS011;62991;50.040;18.400;2023-09-30T00:31:43;10.60;;;5.43;;
74510;SDS011;62991;50.040;18.400;2023-09-30T00:34:44;12.68;;;4.93;;
74510;SDS011;62991;50.040;18.400;2023-09-30T00:37:45;9.25;;;4.47;;
74510;SDS011;62991;50.040;18.400;2023-09-30T00:40:46;9.10;;;4.55;;
74510;SDS011;62991;50.040;18.400;2023-09-30T00:43:51;9.07;;;4.38;;
74510;SDS011;62991;50.040;18.400;2023-09-30T00:46:51;9.13;;;4.32;;
74510;SDS011;62991;50.040;18.400;2023-09-30T00:49:53;9.60;;;4.68;;
74510;SDS011;62991;50.040;18.400;2023-09-30T00:52:54;11.80;;;4.82;;
74510;SDS011;62991;50.040;18.400;2023-09-30T00:55:56;8.63;;;4.88;;
74510;SDS011;62991;50.040;18.400;2023-09-30T00:58:59;7.85;;;4.55;;
74510;SDS011;62991;50.040;18.400;2023-09-30T01:02:00;7.18;;;3.78;;
74510;SDS011;62991;50.040;18.400;2023-09-30T01:05:05;13.45;;;4.40;;
74510;SDS011;62991;50.040;18.400;2023-09-30T01:08:07;9.50;;;4.50;;
74510;SDS011;62991;50.040;18.400;2023-09-30T01:11:08;11.18;;;4.65;;
74510;SDS011;62991;50.040;18.400;2023-09-30T01:17:32;8.35;;;4.40;;
74510;SDS011;62991;50.040;18.400;2023-09-30T01:20:32;7.82;;;4.68;;
74510;SDS011;62991;50.040;18.400;2023-09-30T01:23:34;11.35;;;4.53;;
74510;SDS011;62991;50.040;18.400;2023-09-30T01:26:35;10.85;;;4.70;;
74510;SDS011;62991;50.040;18.400;2023-09-30T01:29:36;9.32;;;4.28;;
74510;SDS011;62991;50.040;18.400;2023-09-30T01:32:38;8.43;;;4.38;;
74510;SDS011;62991;50.040;18.400;2023-09-30T01:35:39;8.25;;;4.25;;
74510;SDS011;62991;50.040;18.400;2023-09-30T01:38:39;10.60;;;4.10;;
74510;SDS011;62991;50.040;18.400;2023-09-30T01:41:41;7.28;;;3.97;;
74510;SDS011;62991;50.040;18.400;2023-09-30T01:44:41;9.10;;;4.30;;
74510;SDS011;62991;50.040;18.400;2023-09-30T01:47:42;11.18;;;3.97;;
74510;SDS011;62991;50.040;18.400;2023-09-30T01:50:43;8.73;;;3.80;;
74510;SDS011;62991;50.040;18.400;2023-09-30T01:53:43;7.18;;;3.83;;
74510;SDS011;62991;50.040;18.400;2023-09-30T01:56:44;9.68;;;4.13;;
74510;SDS011;62991;50.040;18.400;2023-09-30T01:59:45;9.50;;;4.03;;
74510;SDS011;62991;50.040;18.400;2023-09-30T02:02:45;7.28;;;3.90;;
74510;SDS011;62991;50.040;18.400;2023-09-30T02:05:46;8.30;;;3.72;;
74510;SDS011;62991;50.040;18.400;2023-09-30T02:08:47;8.38;;;4.05;;
74510;SDS011;62991;50.040;18.400;2023-09-30T02:11:47;7.95;;;3.97;;
74510;SDS011;62991;50.040;18.400;2023-09-30T02:14:48;6.72;;;3.90;;
74510;SDS011;62991;50.040;18.400;2023-09-30T02:17:49;6.40;;;3.70;;
74510;SDS011;62991;50.040;18.400;2023-09-30T02:20:49;8.15;;;3.60;;
74510;SDS011;62991;50.040;18.400;2023-09-30T02:23:50;9.27;;;4.30;;
74510;SDS011;62991;50.040;18.400;2023-09-30T02:26:55;6.18;;;3.85;;
74510;SDS011;62991;50.040;18.400;2023-09-30T02:29:55;6.10;;;3.58;;
74510;SDS011;62991;50.040;18.400;2023-09-30T02:32:56;7.90;;;3.83;;
74510;SDS011;62991;50.040;18.400;2023-09-30T02:35:57;9.13;;;4.18;;
74510;SDS011;62991;50.040;18.400;2023-09-30T02:38:57;7.38;;;3.97;;
74510;SDS011;62991;50.040;18.400;2023-09-30T02:41:59;7.50;;;3.85;;
74510;SDS011;62991;50.040;18.400;2023-09-30T02:45:00;6.93;;;3.45;;
74510;SDS011;62991;50.040;18.400;2023-09-30T02:48:01;5.63;;;3.13;;
74510;SDS011;62991;50.040;18.400;2023-09-30T02:51:02;12.35;;;3.55;;
74510;SDS011;62991;50.040;18.400;2023-09-30T02:54:03;10.82;;;3.67;;
74510;SDS011;62991;50.040;18.400;2023-09-30T02:57:04;8.00;;;3.60;;
74510;SDS011;62991;50.040;18.400;2023-09-30T03:00:05;6.85;;;3.50;;
74510;SDS011;62991;50.040;18.400;2023-09-30T03:03:23;7.57;;;3.70;;
74510;SDS011;62991;50.040;18.400;2023-09-30T03:06:25;9.45;;;3.75;;
74510;SDS011;62991;50.040;18.400;2023-09-30T03:09:26;7.15;;;3.40;;
74510;SDS011;62991;50.040;18.400;2023-09-30T03:12:27;9.10;;;4.05;;
74510;SDS011;62991;50.040;18.400;2023-09-30T03:15:28;6.38;;;3.53;;
74510;SDS011;62991;50.040;18.400;2023-09-30T03:18:31;7.90;;;3.78;;
74510;SDS011;62991;50.040;18.400;2023-09-30T03:21:31;9.57;;;3.40;;
74510;SDS011;62991;50.040;18.400;2023-09-30T03:24:32;9.25;;;3.67;;
74510;SDS011;62991;50.040;18.400;2023-09-30T03:27:33;8.65;;;3.78;;
74510;SDS011;62991;50.040;18.400;2023-09-30T03:30:34;13.95;;;3.97;;
74510;SDS011;62991;50.040;18.400;2023-09-30T03:33:34;7.65;;;3.97;;
74510;SDS011;62991;50.040;18.400;2023-09-30T03:36:35;6.55;;;3.88;;
74510;SDS011;62991;50.040;18.400;2023-09-30T03:39:36;6.88;;;3.63;;
74510;SDS011;62991;50.040;18.400;2023-09-30T03:42:38;10.02;;;3.88;;
74510;SDS011;62991;50.040;18.400;2023-09-30T03:45:40;8.25;;;3.83;;
74510;SDS011;62991;50.040;18.400;2023-09-30T03:48:41;8.45;;;3.70;;
74510;SDS011;62991;50.040;18.400;2023-09-30T03:51:45;7.50;;;3.88;;
74510;SDS011;62991;50.040;18.400;2023-09-30T03:54:46;9.32;;;4.18;;
74510;SDS011;62991;50.040;18.400;2023-09-30T03:57:48;7.50;;;4.15;;
74510;SDS011;62991;50.040;18.400;2023-09-30T04:00:51;8.07;;;4.70;;
74510;SDS011;62991;50.040;18.400;2023-09-30T04:03:52;9.30;;;4.40;;
74510;SDS011;62991;50.040;18.400;2023-09-30T04:06:55;8.75;;;4.80;;
74510;SDS011;62991;50.040;18.400;2023-09-30T04:09:56;8.82;;;4.35;;
74510;SDS011;62991;50.040;18.400;2023-09-30T04:12:57;9.20;;;4.90;;
74510;SDS011;62991;50.040;18.400;2023-09-30T04:15:58;9.50;;;4.32;;
74510;SDS011;62991;50.040;18.400;2023-09-30T04:18:59;7.10;;;3.78;;
74510;SDS011;62991;50.040;18.400;2023-09-30T04:22:00;11.70;;;4.05;;
74510;SDS011;62991;50.040;18.400;2023-09-30T04:25:01;9.38;;;4.20;;
74510;SDS011;62991;50.040;18.400;2023-09-30T04:28:06;7.35;;;4.03;;
74510;SDS011;62991;50.040;18.400;2023-09-30T04:31:09;9.07;;;3.85;;
74510;SDS011;62991;50.040;18.400;2023-09-30T04:34:11;8.13;;;4.20;;
74510;SDS011;62991;50.040;18.400;2023-09-30T04:37:13;10.48;;;4.07;;
74510;SDS011;62991;50.040;18.400;2023-09-30T04:40:14;8.80;;;3.78;;
74510;SDS011;62991;50.040;18.400;2023-09-30T04:43:21;6.88;;;3.72;;
74510;SDS011;62991;50.040;18.400;2023-09-30T04:46:22;7.15;;;4.28;;
74510;SDS011;62991;50.040;18.400;2023-09-30T04:49:24;7.50;;;3.78;;
74510;SDS011;62991;50.040;18.400;2023-09-30T04:52:24;10.70;;;4.60;;
74510;SDS011;62991;50.040;18.400;2023-09-30T04:55:27;8.23;;;3.83;;
74510;SDS011;62991;50.040;18.400;2023-09-30T04:58:28;10.68;;;4.68;;
74510;SDS011;62991;50.040;18.400;2023-09-30T05:01:29;7.22;;;4.18;;
74510;SDS011;62991;50.040;18.400;2023-09-30T05:04:30;11.68;;;4.03;;
74510;SDS011;62991;50.040;18.400;2023-09-30T05:07:31;6.90;;;4.05;;
74510;SDS011;62991;50.040;18.400;2023-09-30T05:10:34;8.77;;;3.92;;
74510;SDS011;62991;50.040;18.400;2023-09-30T05:13:35;6.93;;;3.78;;
74510;SDS011;62991;50.040;18.400;2023-09-30T05:16:36;8.60;;;4.32;;
74510;SDS011;62991;50.040;18.400;2023-09-30T05:19:37;6.38;;;3.85;;
74510;SDS011;62991;50.040;18.400;2023-09-30T05:22:38;12.30;;;4.30;;
74510;SDS011;62991;50.040;18.400;2023-09-30T05:25:45;14.35;;;4.53;;
74510;SDS011;62991;50.040;18.400;2023-09-30T05:28:46;8.38;;;3.80;;
74510;SDS011;62991;50.040;18.400;2023-09-30T05:31:46;9.73;;;3.60;;
74510;SDS011;62991;50.040;18.400;2023-09-30T05:34:47;8.85;;;4.13;;
74510;SDS011;62991;50.040;18.400;2023-09-30T05:37:48;7.50;;;3.70;;
74510;SDS011;62991;50.040;18.400;2023-09-30T05:40:52;7.93;;;4.00;;
74510;SDS011;62991;50.040;18.400;2023-09-30T05:43:52;9.65;;;4.40;;
74510;SDS011;62991;50.040;18.400;2023-09-30T05:46:53;6.15;;;3.35;;
74510;SDS011;62991;50.040;18.400;2023-09-30T05:49:54;6.75;;;3.60;;
74510;SDS011;62991;50.040;18.400;2023-09-30T05:52:55;6.10;;;3.63;;
74510;SDS011;62991;50.040;18.400;2023-09-30T05:55:56;7.72;;;3.63;;
74510;SDS011;62991;50.040;18.400;2023-09-30T05:58:57;16.05;;;4.65;;
74510;SDS011;62991;50.040;18.400;2023-09-30T06:01:58;10.85;;;3.75;;
74510;SDS011;62991;50.040;18.400;2023-09-30T06:04:59;5.13;;;3.40;;
74510;SDS011;62991;50.040;18.400;2023-09-30T06:08:01;6.28;;;3.67;;
74510;SDS011;62991;50.040;18.400;2023-09-30T06:11:04;7.35;;;3.53;;
74510;SDS011;62991;50.040;18.400;2023-09-30T06:14:05;7.07;;;3.53;;
74510;SDS011;62991;50.040;18.400;2023-09-30T06:17:07;5.90;;;3.60;;
74510;SDS011;62991;50.040;18.400;2023-09-30T06:20:08;8.48;;;3.67;;
74510;SDS011;62991;50.040;18.400;2023-09-30T06:23:16;6.78;;;3.67;;
74510;SDS011;62991;50.040;18.400;2023-09-30T06:26:17;6.65;;;3.65;;
74510;SDS011;62991;50.040;18.400;2023-09-30T06:29:18;9.35;;;4.00;;
74510;SDS011;62991;50.040;18.400;2023-09-30T06:32:19;8.88;;;4.30;;
74510;SDS011;62991;50.040;18.400;2023-09-30T06:35:20;8.02;;;4.00;;
74510;SDS011;62991;50.040;18.400;2023-09-30T06:38:22;7.65;;;4.20;;
74510;SDS011;62991;50.040;18.400;2023-09-30T06:41:23;12.90;;;3.85;;
74510;SDS011;62991;50.040;18.400;2023-09-30T06:44:24;9.05;;;3.88;;
74510;SDS011;62991;50.040;18.400;2023-09-30T06:47:25;10.77;;;4.57;;
74510;SDS011;62991;50.040;18.400;2023-09-30T06:50:27;9.25;;;4.53;;
74510;SDS011;62991;50.040;18.400;2023-09-30T06:53:27;9.25;;;4.72;;
74510;SDS011;62991;50.040;18.400;2023-09-30T06:56:28;7.43;;;4.88;;
74510;SDS011;62991;50.040;18.400;2023-09-30T06:59:29;10.05;;;4.88;;
74510;SDS011;62991;50.040;18.400;2023-09-30T07:02:30;11.57;;;4.85;;
74510;SDS011;62991;50.040;18.400;2023-09-30T07:05:30;10.40;;;5.43;;
74510;SDS011;62991;50.040;18.400;2023-09-30T07:08:31;8.05;;;4.80;;
74510;SDS011;62991;50.040;18.400;2023-09-30T07:11:32;10.93;;;5.25;;
74510;SDS011;62991;50.040;18.400;2023-09-30T07:14:33;7.72;;;4.65;;
74510;SDS011;62991;50.040;18.400;2023-09-30T07:17:34;13.75;;;4.60;;
74510;SDS011;62991;50.040;18.400;2023-09-30T07:20:35;9.23;;;5.13;;
74510;SDS011;62991;50.040;18.400;2023-09-30T07:23:35;10.93;;;5.25;;
74510;SDS011;62991;50.040;18.400;2023-09-30T07:26:37;9.68;;;5.07;;
74510;SDS011;62991;50.040;18.400;2023-09-30T07:29:38;11.38;;;5.65;;
74510;SDS011;62991;50.040;18.400;2023-09-30T07:32:39;11.35;;;5.50;;
74510;SDS011;62991;50.040;18.400;2023-09-30T07:35:41;13.65;;;5.15;;
74510;SDS011;62991;50.040;18.400;2023-09-30T07:38:41;10.32;;;5.35;;
74510;SDS011;62991;50.040;18.400;2023-09-30T07:41:42;10.45;;;5.38;;
74510;SDS011;62991;50.040;18.400;2023-09-30T07:44:43;10.05;;;5.32;;
74510;SDS011;62991;50.040;18.400;2023-09-30T07:47:44;13.93;;;7.30;;
74510;SDS011;62991;50.040;18.400;2023-09-30T07:50:46;12.00;;;5.78;;
74510;SDS011;62991;50.040;18.400;2023-09-30T07:53:47;10.52;;;5.03;;
74510;SDS011;62991;50.040;18.400;2023-09-30T07:56:48;11.75;;;5.35;;
74510;SDS011;62991;50.040;18.400;2023-09-30T07:59:49;12.65;;;5.78;;
74510;SDS011;62991;50.040;18.400;2023-09-30T08:02:49;11.57;;;5.30;;
74510;SDS011;62991;50.040;18.400;2023-09-30T08:05:51;11.35;;;5.78;;
74510;SDS011;62991;50.040;18.400;2023-09-30T08:08:52;9.90;;;4.85;;
74510;SDS011;62991;50.040;18.400;2023-09-30T08:11:54;11.65;;;6.60;;
74510;SDS011;62991;50.040;18.400;2023-09-30T08:14:56;10.18;;;5.57;;
74510;SDS011;62991;50.040;18.400;2023-09-30T08:17:57;12.18;;;5.55;;
74510;SDS011;62991;50.040;18.400;2023-09-30T08:20:58;14.07;;;6.13;;
74510;SDS011;62991;50.040;18.400;2023-09-30T08:24:01;12.18;;;5.35;;
74510;SDS011;62991;50.040;18.400;2023-09-30T08:27:02;11.10;;;5.53;;
74510;SDS011;62991;50.040;18.400;2023-09-30T08:30:03;9.90;;;5.65;;
74510;SDS011;62991;50.040;18.400;2023-09-30T08:33:05;9.13;;;5.85;;
74510;SDS011;62991;50.040;18.400;2023-09-30T08:36:07;10.88;;;5.75;;
74510;SDS011;62991;50.040;18.400;2023-09-30T08:39:08;8.57;;;4.97;;
74510;SDS011;62991;50.040;18.400;2023-09-30T08:42:12;10.23;;;5.15;;
74510;SDS011;62991;50.040;18.400;2023-09-30T08:45:14;10.45;;;5.32;;
74510;SDS011;62991;50.040;18.400;2023-09-30T08:48:17;12.05;;;6.03;;
74510;SDS011;62991;50.040;18.400;2023-09-30T08:51:19;9.63;;;5.03;;
74510;SDS011;62991;50.040;18.400;2023-09-30T08:54:19;10.10;;;4.97;;
74510;SDS011;62991;50.040;18.400;2023-09-30T08:57:20;10.73;;;4.78;;
74510;SDS011;62991;50.040;18.400;2023-09-30T09:00:21;10.32;;;5.15;;
74510;SDS011;62991;50.040;18.400;2023-09-30T09:03:22;12.88;;;5.00;;
74510;SDS011;62991;50.040;18.400;2023-09-30T09:06:24;9.40;;;4.90;;
74510;SDS011;62991;50.040;18.400;2023-09-30T09:09:25;10.60;;;5.10;;
74510;SDS011;62991;50.040;18.400;2023-09-30T09:12:26;9.60;;;4.97;;
74510;SDS011;62991;50.040;18.400;2023-09-30T09:15:27;9.23;;;5.28;;
74510;SDS011;62991;50.040;18.400;2023-09-30T09:18:32;12.50;;;5.88;;
74510;SDS011;62991;50.040;18.400;2023-09-30T09:21:33;14.05;;;6.07;;
74510;SDS011;62991;50.040;18.400;2023-09-30T09:24:37;11.20;;;6.10;;
74510;SDS011;62991;50.040;18.400;2023-09-30T09:27:46;19.33;;;7.22;;
74510;SDS011;62991;50.040;18.400;2023-09-30T09:30:47;10.68;;;4.85;;
74510;SDS011;62991;50.040;18.400;2023-09-30T09:33:48;12.45;;;5.78;;
74510;SDS011;62991;50.040;18.400;2023-09-30T09:36:50;12.98;;;7.22;;
74510;SDS011;62991;50.040;18.400;2023-09-30T09:39:55;14.35;;;6.20;;
74510;SDS011;62991;50.040;18.400;2023-09-30T09:42:57;13.63;;;6.75;;
74510;SDS011;62991;50.040;18.400;2023-09-30T09:45:58;10.85;;;6.22;;
74510;SDS011;62991;50.040;18.400;2023-09-30T09:49:03;12.18;;;5.72;;
74510;SDS011;62991;50.040;18.400;2023-09-30T09:52:04;12.13;;;6.20;;
74510;SDS011;62991;50.040;18.400;2023-09-30T09:55:06;11.05;;;4.90;;
74510;SDS011;62991;50.040;18.400;2023-09-30T09:58:08;12.48;;;5.95;;
74510;SDS011;62991;50.040;18.400;2023-09-30T10:01:10;10.63;;;5.78;;
74510;SDS011;62991;50.040;18.400;2023-09-30T10:04:11;7.53;;;4.47;;
74510;SDS011;62991;50.040;18.400;2023-09-30T10:07:21;8.75;;;4.70;;
74510;SDS011;62991;50.040;18.400;2023-09-30T10:10:25;6.35;;;3.80;;
74510;SDS011;62991;50.040;18.400;2023-09-30T10:17:03;7.93;;;3.78;;
74510;SDS011;62991;50.040;18.400;2023-09-30T10:20:04;8.13;;;5.28;;
74510;SDS011;62991;50.040;18.400;2023-09-30T10:23:22;6.75;;;3.75;;
74510;SDS011;62991;50.040;18.400;2023-09-30T10:26:24;7.00;;;2.83;;
74510;SDS011;62991;50.040;18.400;2023-09-30T10:29:39;7.50;;;3.80;;
74510;SDS011;62991;50.040;18.400;2023-09-30T10:35:51;6.97;;;4.28;;
74510;SDS011;62991;50.040;18.400;2023-09-30T10:38:52;11.88;;;5.78;;
74510;SDS011;62991;50.040;18.400;2023-09-30T10:41:53;11.07;;;5.10;;
74510;SDS011;62991;50.040;18.400;2023-09-30T10:44:54;13.65;;;5.45;;
74510;SDS011;62991;50.040;18.400;2023-09-30T10:47:55;8.57;;;4.03;;
74510;SDS011;62991;50.040;18.400;2023-09-30T10:50:56;9.25;;;4.70;;
74510;SDS011;62991;50.040;18.400;2023-09-30T10:54:24;9.13;;;4.38;;
74510;SDS011;62991;50.040;18.400;2023-09-30T10:57:28;9.05;;;4.45;;
74510;SDS011;62991;50.040;18.400;2023-09-30T11:00:29;9.35;;;4.38;;
74510;SDS011;62991;50.040;18.400;2023-09-30T11:03:30;10.13;;;4.68;;
74510;SDS011;62991;50.040;18.400;2023-09-30T11:06:31;12.75;;;4.85;;
74510;SDS011;62991;50.040;18.400;2023-09-30T11:09:33;9.43;;;4.40;;
74510;SDS011;62991;50.040;18.400;2023-09-30T11:12:34;7.93;;;3.95;;
74510;SDS011;62991;50.040;18.400;2023-09-30T11:15:34;8.52;;;4.03;;
74510;SDS011;62991;50.040;18.400;2023-09-30T11:18:36;8.40;;;3.67;;
74510;SDS011;62991;50.040;18.400;2023-09-30T11:21:39;8.80;;;4.47;;
74510;SDS011;62991;50.040;18.400;2023-09-30T11:24:41;6.82;;;3.40;;
74510;SDS011;62991;50.040;18.400;2023-09-30T11:27:42;6.53;;;3.28;;
74510;SDS011;62991;50.040;18.400;2023-09-30T11:30:58;7.10;;;3.42;;
74510;SDS011;62991;50.040;18.400;2023-09-30T11:34:00;6.82;;;3.50;;
74510;SDS011;62991;50.040;18.400;2023-09-30T11:37:04;5.95;;;2.55;;
74510;SDS011;62991;50.040;18.400;2023-09-30T11:40:23;6.35;;;3.40;;
74510;SDS011;62991;50.040;18.400;2023-09-30T11:43:24;11.00;;;5.30;;
74510;SDS011;62991;50.040;18.400;2023-09-30T11:46:25;8.75;;;3.72;;
74510;SDS011;62991;50.040;18.400;2023-09-30T11:52:38;7.50;;;3.40;;
74510;SDS011;62991;50.040;18.400;2023-09-30T11:55:41;4.57;;;1.92;;
74510;SDS011;62991;50.040;18.400;2023-09-30T11:58:42;5.03;;;2.38;;
74510;SDS011;62991;50.040;18.400;2023-09-30T12:01:43;6.50;;;3.05;;
74510;SDS011;62991;50.040;18.400;2023-09-30T12:04:45;4.55;;;2.33;;
74510;SDS011;62991;50.040;18.400;2023-09-30T12:07:49;7.15;;;2.50;;
74510;SDS011;62991;50.040;18.400;2023-09-30T12:10:49;9.52;;;3.35;;
74510;SDS011;62991;50.040;18.400;2023-09-30T12:13:50;3.72;;;1.83;;
74510;SDS011;62991;50.040;18.400;2023-09-30T12:16:51;6.00;;;2.40;;
74510;SDS011;62991;50.040;18.400;2023-09-30T12:19:52;4.90;;;2.63;;
74510;SDS011;62991;50.040;18.400;2023-09-30T12:22:52;5.18;;;2.30;;
74510;SDS011;62991;50.040;18.400;2023-09-30T12:25:53;10.18;;;2.90;;
74510;SDS011;62991;50.040;18.400;2023-09-30T12:28:55;5.75;;;2.30;;
74510;SDS011;62991;50.040;18.400;2023-09-30T12:31:56;4.78;;;2.20;;
74510;SDS011;62991;50.040;18.400;2023-09-30T12:34:56;8.23;;;3.00;;
74510;SDS011;62991;50.040;18.400;2023-09-30T12:37:57;5.97;;;2.35;;
74510;SDS011;62991;50.040;18.400;2023-09-30T12:40:58;4.35;;;1.90;;
74510;SDS011;62991;50.040;18.400;2023-09-30T12:43:58;4.53;;;2.20;;
74510;SDS011;62991;50.040;18.400;2023-09-30T12:46:59;5.72;;;2.70;;
74510;SDS011;62991;50.040;18.400;2023-09-30T12:50:00;4.97;;;2.30;;
74510;SDS011;62991;50.040;18.400;2023-09-30T12:53:00;8.90;;;2.10;;
74510;SDS011;62991;50.040;18.400;2023-09-30T12:56:01;4.53;;;2.00;;
74510;SDS011;62991;50.040;18.400;2023-09-30T12:59:02;6.43;;;2.28;;
74510;SDS011;62991;50.040;18.400;2023-09-30T13:02:03;5.43;;;2.20;;
74510;SDS011;62991;50.040;18.400;2023-09-30T13:05:05;5.43;;;2.15;;
74510;SDS011;62991;50.040;18.400;2023-09-30T13:08:07;6.50;;;2.20;;
74510;SDS011;62991;50.040;18.400;2023-09-30T13:11:07;7.43;;;2.50;;
74510;SDS011;62991;50.040;18.400;2023-09-30T13:14:08;5.65;;;2.53;;
74510;SDS011;62991;50.040;18.400;2023-09-30T13:17:09;5.18;;;2.60;;
74510;SDS011;62991;50.040;18.400;2023-09-30T13:20:12;7.43;;;2.70;;
74510;SDS011;62991;50.040;18.400;2023-09-30T13:23:13;5.32;;;2.08;;
74510;SDS011;62991;50.040;18.400;2023-09-30T13:26:14;3.97;;;1.90;;
74510;SDS011;62991;50.040;18.400;2023-09-30T13:29:15;5.35;;;2.22;;
74510;SDS011;62991;50.040;18.400;2023-09-30T13:32:18;9.07;;;2.53;;
74510;SDS011;62991;50.040;18.400;2023-09-30T13:35:19;4.63;;;1.65;;
74510;SDS011;62991;50.040;18.400;2023-09-30T13:38:20;6.38;;;1.80;;
74510;SDS011;62991;50.040;18.400;2023-09-30T13:41:21;4.20;;;2.20;;
74510;SDS011;62991;50.040;18.400;2023-09-30T13:44:21;9.02;;;2.92;;
74510;SDS011;62991;50.040;18.400;2023-09-30T13:47:24;6.90;;;2.50;;
74510;SDS011;62991;50.040;18.400;2023-09-30T13:50:25;5.28;;;2.15;;
74510;SDS011;62991;50.040;18.400;2023-09-30T13:53:26;5.15;;;2.67;;
74510;SDS011;62991;50.040;18.400;2023-09-30T13:56:26;5.05;;;1.98;;
74510;SDS011;62991;50.040;18.400;2023-09-30T13:59:27;3.75;;;1.80;;
74510;SDS011;62991;50.040;18.400;2023-09-30T14:02:28;6.03;;;2.20;;
74510;SDS011;62991;50.040;18.400;2023-09-30T14:05:29;6.03;;;2.00;;
74510;SDS011;62991;50.040;18.400;2023-09-30T14:08:30;5.22;;;2.53;;
74510;SDS011;62991;50.040;18.400;2023-09-30T14:11:30;6.28;;;2.35;;
74510;SDS011;62991;50.040;18.400;2023-09-30T14:14:32;13.38;;;3.60;;
74510;SDS011;62991;50.040;18.400;2023-09-30T14:17:34;9.05;;;2.55;;
74510;SDS011;62991;50.040;18.400;2023-09-30T14:20:37;8.85;;;2.88;;
74510;SDS011;62991;50.040;18.400;2023-09-30T14:23:38;6.13;;;1.90;;
74510;SDS011;62991;50.040;18.400;2023-09-30T14:26:38;5.65;;;1.95;;
74510;SDS011;62991;50.040;18.400;2023-09-30T14:29:40;4.28;;;1.65;;
74510;SDS011;62991;50.040;18.400;2023-09-30T14:32:41;5.85;;;1.90;;
74510;SDS011;62991;50.040;18.400;2023-09-30T14:35:42;4.97;;;1.90;;
74510;SDS011;62991;50.040;18.400;2023-09-30T14:38:45;10.20;;;1.70;;
74510;SDS011;62991;50.040;18.400;2023-09-30T14:41:46;4.63;;;1.60;;
74510;SDS011;62991;50.040;18.400;2023-09-30T14:44:47;4.03;;;1.40;;
74510;SDS011;62991;50.040;18.400;2023-09-30T14:47:48;9.73;;;1.88;;
74510;SDS011;62991;50.040;18.400;2023-09-30T14:50:51;4.30;;;1.63;;
74510;SDS011;62991;50.040;18.400;2023-09-30T14:53:51;5.25;;;1.75;;
74510;SDS011;62991;50.040;18.400;2023-09-30T14:56:52;5.68;;;1.80;;
74510;SDS011;62991;50.040;18.400;2023-09-30T14:59:53;4.97;;;2.20;;
74510;SDS011;62991;50.040;18.400;2023-09-30T15:02:53;9.05;;;2.13;;
74510;SDS011;62991;50.040;18.400;2023-09-30T15:05:58;7.03;;;1.88;;
74510;SDS011;62991;50.040;18.400;2023-09-30T15:08:59;8.40;;;2.00;;
74510;SDS011;62991;50.040;18.400;2023-09-30T15:12:04;7.78;;;2.10;;
74510;SDS011;62991;50.040;18.400;2023-09-30T15:15:05;8.18;;;1.92;;
74510;SDS011;62991;50.040;18.400;2023-09-30T15:18:06;10.10;;;2.20;;
74510;SDS011;62991;50.040;18.400;2023-09-30T15:21:07;6.90;;;1.70;;
74510;SDS011;62991;50.040;18.400;2023-09-30T15:24:08;6.35;;;1.80;;
74510;SDS011;62991;50.040;18.400;2023-09-30T15:27:08;5.15;;;1.83;;
74510;SDS011;62991;50.040;18.400;2023-09-30T15:30:10;10.05;;;2.20;;
74510;SDS011;62991;50.040;18.400;2023-09-30T15:33:11;6.82;;;2.22;;
74510;SDS011;62991;50.040;18.400;2023-09-30T15:36:15;5.50;;;2.05;;
74510;SDS011;62991;50.040;18.400;2023-09-30T15:39:20;6.30;;;2.40;;
74510;SDS011;62991;50.040;18.400;2023-09-30T15:42:21;5.53;;;2.05;;
74510;SDS011;62991;50.040;18.400;2023-09-30T15:45:21;6.72;;;1.92;;
74510;SDS011;62991;50.040;18.400;2023-09-30T15:48:23;9.07;;;2.13;;
74510;SDS011;62991;50.040;18.400;2023-09-30T15:51:24;7.28;;;2.65;;
74510;SDS011;62991;50.040;18.400;2023-09-30T15:54:25;6.97;;;2.60;;
74510;SDS011;62991;50.040;18.400;2023-09-30T15:57:26;10.88;;;2.35;;
74510;SDS011;62991;50.040;18.400;2023-09-30T16:00:26;7.85;;;2.47;;
74510;SDS011;62991;50.040;18.400;2023-09-30T16:03:27;6.50;;;2.58;;
74510;SDS011;62991;50.040;18.400;2023-09-30T16:06:28;7.13;;;2.15;;
74510;SDS011;62991;50.040;18.400;2023-09-30T16:09:29;10.30;;;2.70;;
74510;SDS011;62991;50.040;18.400;2023-09-30T16:12:29;6.18;;;1.70;;
74510;SDS011;62991;50.040;18.400;2023-09-30T16:15:30;8.00;;;2.28;;
74510;SDS011;62991;50.040;18.400;2023-09-30T16:18:31;7.45;;;2.10;;
74510;SDS011;62991;50.040;18.400;2023-09-30T16:21:32;8.68;;;1.98;;
74510;SDS011;62991;50.040;18.400;2023-09-30T16:24:32;6.45;;;2.13;;
74510;SDS011;62991;50.040;18.400;2023-09-30T16:27:34;7.47;;;2.00;;
74510;SDS011;62991;50.040;18.400;2023-09-30T16:30:34;5.65;;;2.20;;
74510;SDS011;62991;50.040;18.400;2023-09-30T16:33:35;6.50;;;2.60;;
74510;SDS011;62991;50.040;18.400;2023-09-30T16:36:36;7.20;;;2.35;;
74510;SDS011;62991;50.040;18.400;2023-09-30T16:39:37;5.85;;;2.55;;
74510;SDS011;62991;50.040;18.400;2023-09-30T16:42:37;9.13;;;3.05;;
74510;SDS011;62991;50.040;18.400;2023-09-30T16:45:38;6.80;;;2.60;;
74510;SDS011;62991;50.040;18.400;2023-09-30T16:48:39;7.95;;;2.45;;
74510;SDS011;62991;50.040;18.400;2023-09-30T16:51:40;9.02;;;2.80;;
74510;SDS011;62991;50.040;18.400;2023-09-30T16:54:41;8.18;;;2.53;;
74510;SDS011;62991;50.040;18.400;2023-09-30T16:57:41;8.30;;;3.10;;
74510;SDS011;62991;50.040;18.400;2023-09-30T17:00:42;10.65;;;3.63;;
74510;SDS011;62991;50.040;18.400;2023-09-30T17:03:43;9.75;;;2.92;;
74510;SDS011;62991;50.040;18.400;2023-09-30T17:06:44;7.90;;;2.90;;
74510;SDS011;62991;50.040;18.400;2023-09-30T17:09:46;7.90;;;2.63;;
74510;SDS011;62991;50.040;18.400;2023-09-30T17:12:46;8.32;;;3.05;;
74510;SDS011;62991;50.040;18.400;2023-09-30T17:15:47;11.05;;;3.22;;
74510;SDS011;62991;50.040;18.400;2023-09-30T17:18:48;7.75;;;2.80;;
74510;SDS011;62991;50.040;18.400;2023-09-30T17:21:49;7.78;;;2.90;;
74510;SDS011;62991;50.040;18.400;2023-09-30T17:24:50;9.18;;;3.03;;
74510;SDS011;62991;50.040;18.400;2023-09-30T17:27:51;9.35;;;2.80;;
74510;SDS011;62991;50.040;18.400;2023-09-30T17:30:52;8.43;;;2.90;;
74510;SDS011;62991;50.040;18.400;2023-09-30T17:33:53;6.40;;;2.40;;
74510;SDS011;62991;50.040;18.400;2023-09-30T17:36:53;8.35;;;2.55;;
74510;SDS011;62991;50.040;18.400;2023-09-30T17:39:54;7.63;;;2.85;;
74510;SDS011;62991;50.040;18.400;2023-09-30T17:42:55;6.20;;;2.65;;
74510;SDS011;62991;50.040;18.400;2023-09-30T17:45:55;7.40;;;2.80;;
74510;SDS011;62991;50.040;18.400;2023-09-30T17:48:56;9.25;;;2.65;;
74510;SDS011;62991;50.040;18.400;2023-09-30T17:51:57;9.25;;;3.17;;
74510;SDS011;62991;50.040;18.400;2023-09-30T17:54:58;10.50;;;3.75;;
74510;SDS011;62991;50.040;18.400;2023-09-30T17:57:59;9.77;;;3.08;;
74510;SDS011;62991;50.040;18.400;2023-09-30T18:01:00;9.63;;;3.25;;
74510;SDS011;62991;50.040;18.400;2023-09-30T18:04:01;6.47;;;2.60;;
74510;SDS011;62991;50.040;18.400;2023-09-30T18:07:03;13.65;;;3.17;;